createdAt,value
2016-03-27T09:36:05.305Z,2020
2016-03-27T09:36:18.305Z,2050
2016-03-27T09:36:31.604Z,2230
2016-03-27T09:36:44.886Z,2375
2016-03-27T09:36:58.182Z,2300
2016-03-27T09:37:11.479Z,2400
2016-03-27T09:37:24.590Z,2500
2016-03-27T09:37:37.871Z,2475
2016-03-27T09:37:51.168Z,2455
2016-03-27T09:38:04.465Z,2505
2016-03-27T09:38:18.574Z,2505
2016-03-27T09:38:31.857Z,2320
2016-03-27T09:38:45.139Z,2190
2016-03-27T09:38:58.420Z,2170
2016-03-27T09:39:11.701Z,2235
2016-03-27T09:39:24.984Z,2175
2016-03-27T09:39:38.250Z,2210
2016-03-27T09:39:51.562Z,2235
2016-03-27T09:40:04.844Z,2275
2016-03-27T09:40:18.109Z,2310
2016-03-27T09:40:31.408Z,2275
2016-03-27T09:40:44.689Z,2235
2016-03-27T09:40:57.986Z,2250
2016-03-27T09:41:11.268Z,2165
2016-03-27T09:41:24.567Z,2075
2016-03-27T09:41:37.849Z,2065
2016-03-27T09:41:51.146Z,2065
2016-03-27T09:42:04.442Z,1990
2016-03-27T09:42:17.724Z,1990
2016-03-27T09:42:30.990Z,2070
2016-03-27T09:42:44.287Z,2130
2016-03-27T09:42:57.584Z,2175
2016-03-27T09:43:10.850Z,2105
2016-03-27T09:43:24.149Z,2070
2016-03-27T09:43:37.430Z,2015
2016-03-27T09:43:50.711Z,1960
2016-03-27T09:44:04.024Z,1965
2016-03-27T09:44:17.305Z,1955
2016-03-27T09:44:30.605Z,2045
2016-03-27T09:44:43.870Z,2055
2016-03-27T09:44:57.183Z,2080
2016-03-27T09:45:10.464Z,2105
2016-03-27T09:45:23.747Z,2160
2016-03-27T09:45:37.044Z,2190
2016-03-27T09:45:50.325Z,2130
2016-03-27T09:46:03.622Z,2095
2016-03-27T09:46:16.919Z,2080
2016-03-27T09:46:30.203Z,2085
2016-03-27T09:46:43.469Z,2140
2016-03-27T09:46:56.766Z,2210
2016-03-27T09:47:10.032Z,2155
2016-03-27T09:47:23.315Z,2210
2016-03-27T09:47:36.580Z,2265
2016-03-27T09:47:49.877Z,2285
2016-03-27T09:48:03.174Z,2350
2016-03-27T09:48:16.768Z,2425
2016-03-27T09:48:30.067Z,2450
2016-03-27T09:48:43.348Z,2415
2016-03-27T09:48:56.629Z,2410
2016-03-27T09:49:09.926Z,2395
2016-03-27T09:49:23.192Z,2385
2016-03-27T09:49:36.476Z,2410
2016-03-27T09:49:49.757Z,2525
2016-03-27T09:50:03.039Z,2630
2016-03-27T09:50:16.351Z,2635
2016-03-27T09:50:29.635Z,2625
2016-03-27T09:50:42.917Z,2590
2016-03-27T09:50:56.198Z,2605
2016-03-27T09:51:09.495Z,2580
2016-03-27T09:51:22.776Z,2585
2016-03-27T09:51:36.060Z,2620
2016-03-27T09:51:49.185Z,2685
2016-03-27T09:52:02.482Z,2600
2016-03-27T09:52:15.763Z,2540
2016-03-27T09:52:29.047Z,2520
2016-03-27T09:52:42.359Z,2505
2016-03-27T09:52:55.625Z,2505
2016-03-27T09:53:08.906Z,2520
2016-03-27T09:53:22.203Z,2515
2016-03-27T09:53:35.503Z,2565
2016-03-27T09:53:48.800Z,2610
2016-03-27T09:54:02.112Z,2600
2016-03-27T09:54:15.393Z,2650
2016-03-27T09:54:28.677Z,2660
2016-03-27T09:54:41.958Z,2625
2016-03-27T09:54:55.255Z,2625
2016-03-27T09:55:08.536Z,2615
2016-03-27T09:55:21.817Z,2635
2016-03-27T09:55:35.118Z,2615
2016-03-27T09:55:48.399Z,2605
2016-03-27T09:56:01.681Z,2585
2016-03-27T09:56:14.993Z,2520
2016-03-27T09:56:28.261Z,2540
2016-03-27T09:56:41.558Z,2545
2016-03-27T09:56:54.823Z,2540
2016-03-27T09:57:08.089Z,2525
2016-03-27T09:57:21.354Z,2590
2016-03-27T09:57:34.638Z,2600
2016-03-27T09:57:47.919Z,2580
2016-03-27T09:58:01.169Z,2625
2016-03-27T09:58:14.466Z,2670
2016-03-27T09:58:27.751Z,2655
2016-03-27T09:58:41.032Z,2650
2016-03-27T09:58:54.314Z,2570
2016-03-27T09:59:07.595Z,2540
2016-03-27T09:59:20.876Z,2520
2016-03-27T09:59:33.675Z,2510
2016-03-27T09:59:46.831Z,2525
2016-03-27T10:00:00.112Z,2540
2016-03-27T10:00:13.394Z,2540
2016-03-27T10:00:26.693Z,2470
2016-03-27T10:00:39.974Z,2475
2016-03-27T10:00:53.255Z,2520
2016-03-27T10:01:06.536Z,2515
2016-03-27T10:01:19.818Z,2555
2016-03-27T10:01:33.103Z,2615
2016-03-27T10:01:46.384Z,2620
2016-03-27T10:01:59.681Z,2605
2016-03-27T10:02:12.962Z,2550
2016-03-27T10:02:26.245Z,2590
2016-03-27T10:02:39.542Z,2725
2016-03-27T10:02:52.824Z,2775
2016-03-27T10:03:06.136Z,2880
2016-03-27T10:03:19.511Z,2930
2016-03-27T10:03:32.858Z,2885
2016-03-27T10:03:46.139Z,2830
2016-03-27T10:03:59.639Z,2965
2016-03-27T10:04:12.920Z,2985
2016-03-27T10:04:26.205Z,3025
2016-03-27T10:04:39.470Z,2980
2016-03-27T10:04:52.751Z,2985
2016-03-27T10:05:06.033Z,2965
2016-03-27T10:05:19.314Z,2995
2016-03-27T10:05:32.597Z,2955
2016-03-27T10:05:45.878Z,3005
2016-03-27T10:05:59.160Z,3015
2016-03-27T10:06:12.503Z,3115
2016-03-27T10:06:25.788Z,3075
2016-03-27T10:06:39.085Z,3055
2016-03-27T10:06:52.381Z,3010
2016-03-27T10:07:05.663Z,3140
2016-03-27T10:07:18.928Z,3210
2016-03-27T10:07:32.213Z,3230
2016-03-27T10:07:45.509Z,3255
2016-03-27T10:07:58.791Z,3260
2016-03-27T10:08:12.056Z,3205
2016-03-27T10:08:25.340Z,3150
2016-03-27T10:08:38.621Z,3100
2016-03-27T10:08:51.886Z,3090
2016-03-27T10:09:05.183Z,3075
2016-03-27T10:09:18.465Z,3050
2016-03-27T10:09:31.749Z,3060
2016-03-27T10:09:45.046Z,2995
2016-03-27T10:09:58.343Z,2905
2016-03-27T10:10:11.608Z,2880
2016-03-27T10:10:24.892Z,2635
2016-03-27T10:10:38.174Z,2675
2016-03-27T10:10:51.439Z,2670
2016-03-27T10:11:04.736Z,2845
2016-03-27T10:11:18.033Z,2805
2016-03-27T10:11:31.301Z,2595
2016-03-27T10:11:44.566Z,2425
2016-03-27T10:11:57.707Z,2505
2016-03-27T10:12:10.988Z,2525
2016-03-27T10:12:24.272Z,2615
2016-03-27T10:12:37.397Z,2595
2016-03-27T10:12:50.694Z,2660
2016-03-27T10:13:03.976Z,3005
2016-03-27T10:13:17.288Z,3085
2016-03-27T10:13:30.588Z,3240
2016-03-27T10:13:43.869Z,3125
2016-03-27T10:13:57.135Z,3055
2016-03-27T10:14:10.432Z,2935
2016-03-27T10:14:23.699Z,2920
2016-03-27T10:14:36.996Z,2850
2016-03-27T10:14:50.309Z,2850
2016-03-27T10:15:03.590Z,2655
2016-03-27T10:15:16.871Z,2650
2016-03-27T10:15:30.171Z,2695
2016-03-27T10:15:43.452Z,2635
2016-03-27T10:15:56.718Z,2740
2016-03-27T10:16:10.046Z,2830
2016-03-27T10:16:23.327Z,2895
2016-03-27T10:16:36.596Z,2905
2016-03-27T10:16:49.877Z,2860
2016-03-27T10:17:03.174Z,2905
2016-03-27T10:17:16.299Z,2910
2016-03-27T10:17:29.426Z,2840
2016-03-27T10:17:42.707Z,2885
2016-03-27T10:17:55.989Z,2755
2016-03-27T10:18:09.254Z,2575
2016-03-27T10:18:22.801Z,2845
2016-03-27T10:18:36.085Z,2815
2016-03-27T10:18:49.367Z,2795
2016-03-27T10:19:02.663Z,3285
2016-03-27T10:19:30.120Z,3060
2016-03-27T10:19:43.385Z,3145
2016-03-27T10:19:56.682Z,3260
2016-03-27T10:20:09.963Z,3365
2016-03-27T10:20:23.229Z,3220
2016-03-27T10:20:36.559Z,3055
2016-03-27T10:20:49.856Z,3040
2016-03-27T10:21:03.122Z,2790
2016-03-27T10:21:16.418Z,2615
2016-03-27T10:21:29.704Z,2650
2016-03-27T10:21:42.985Z,2470
2016-03-27T10:21:56.251Z,2425
2016-03-27T10:22:09.547Z,2325
2016-03-27T10:22:22.813Z,2200
2016-03-27T10:22:36.128Z,2300
2016-03-27T10:22:49.424Z,2345
2016-03-27T10:23:02.706Z,2280
2016-03-27T10:23:15.971Z,2390
2016-03-27T10:23:29.270Z,2460
2016-03-27T10:23:42.536Z,2505
2016-03-27T10:23:55.817Z,2495
2016-03-27T10:24:09.114Z,2500
2016-03-27T10:24:22.395Z,2555
2016-03-27T10:24:35.680Z,2695
2016-03-27T10:24:48.962Z,2760
2016-03-27T10:25:02.243Z,2805
2016-03-27T10:25:15.743Z,2805
2016-03-27T10:25:28.886Z,2780
2016-03-27T10:25:42.182Z,2790
2016-03-27T10:25:55.448Z,2775
2016-03-27T10:26:08.698Z,2855
2016-03-27T10:26:21.979Z,2870
2016-03-27T10:26:35.247Z,2935
2016-03-27T10:26:48.513Z,2985
2016-03-27T10:27:01.778Z,2980
2016-03-27T10:27:15.059Z,2910
2016-03-27T10:27:28.345Z,2905
2016-03-27T10:27:41.673Z,2685
2016-03-27T10:27:54.954Z,2675
2016-03-27T10:28:08.235Z,2680
2016-03-27T10:28:21.532Z,2505
2016-03-27T10:28:34.831Z,2580
2016-03-27T10:28:48.112Z,2635
2016-03-27T10:29:01.253Z,2535
2016-03-27T10:29:14.534Z,2650
2016-03-27T10:29:27.803Z,2855
2016-03-27T10:29:41.084Z,2980
2016-03-27T10:29:54.397Z,3125
2016-03-27T10:30:07.678Z,3140
2016-03-27T10:30:20.959Z,3250
2016-03-27T10:30:34.274Z,3150
2016-03-27T10:30:47.555Z,3075
2016-03-27T10:31:00.836Z,3020
2016-03-27T10:31:13.992Z,3070
2016-03-27T10:31:27.277Z,3175
2016-03-27T10:31:40.542Z,2935
2016-03-27T10:31:53.839Z,2905
2016-03-27T10:32:07.120Z,2690
2016-03-27T10:32:20.402Z,2365
2016-03-27T10:32:33.685Z,2150
2016-03-27T10:32:46.997Z,2165
2016-03-27T10:33:00.279Z,2170
2016-03-27T10:33:13.935Z,2235
2016-03-27T10:33:27.439Z,2270
2016-03-27T10:33:40.720Z,2275
2016-03-27T10:33:54.001Z,2300
2016-03-27T10:34:07.283Z,2310
2016-03-27T10:34:20.579Z,2315
2016-03-27T10:34:33.847Z,2380
2016-03-27T10:34:47.128Z,2425
2016-03-27T10:35:00.425Z,2455
2016-03-27T10:35:13.691Z,2480
2016-03-27T10:35:26.818Z,2590
2016-03-27T10:35:40.099Z,2580
2016-03-27T10:35:53.396Z,2705
2016-03-27T10:36:06.662Z,2810
2016-03-27T10:36:19.958Z,2760
2016-03-27T10:36:33.244Z,2640
2016-03-27T10:36:46.509Z,2490
2016-03-27T10:36:59.806Z,2340
2016-03-27T10:37:13.087Z,2425
2016-03-27T10:37:26.355Z,2480
2016-03-27T10:37:39.652Z,2615
2016-03-27T10:37:52.793Z,2630
2016-03-27T10:38:06.074Z,2440
2016-03-27T10:38:19.355Z,2335
2016-03-27T10:38:32.499Z,2235
2016-03-27T10:38:46.077Z,2215
2016-03-27T10:38:59.358Z,2350
2016-03-27T10:39:12.655Z,2410
2016-03-27T10:39:25.767Z,2470
2016-03-27T10:39:39.064Z,2440
2016-03-27T10:39:52.361Z,2465
2016-03-27T10:40:05.658Z,2595
2016-03-27T10:40:18.939Z,2920
2016-03-27T10:40:32.238Z,2850
2016-03-27T10:40:45.519Z,2860
2016-03-27T10:40:58.847Z,2800
2016-03-27T10:41:12.144Z,2950
2016-03-27T10:41:25.429Z,2980
2016-03-27T10:41:38.710Z,3045
2016-03-27T10:41:51.991Z,3150
2016-03-27T10:42:05.288Z,3130
2016-03-27T10:42:18.585Z,3005
2016-03-27T10:42:31.885Z,2950
2016-03-27T10:42:45.166Z,2900
2016-03-27T10:42:58.447Z,2840
2016-03-27T10:43:11.713Z,2670
2016-03-27T10:43:24.840Z,2510
2016-03-27T10:43:38.121Z,2425
2016-03-27T10:43:51.402Z,2440
2016-03-27T10:44:04.012Z,2480
2016-03-27T10:44:17.309Z,2430
2016-03-27T10:44:30.593Z,2425
2016-03-27T10:44:43.874Z,2460
2016-03-27T10:44:57.140Z,2480
2016-03-27T10:45:10.437Z,2575
2016-03-27T10:45:23.718Z,2640
2016-03-27T10:45:37.018Z,2725
2016-03-27T10:45:50.315Z,2670
2016-03-27T10:46:03.580Z,2925
2016-03-27T10:46:16.861Z,3080
2016-03-27T10:46:30.130Z,2825
2016-03-27T10:46:43.427Z,2755
2016-03-27T10:46:56.724Z,2910
2016-03-27T10:47:10.068Z,2805
2016-03-27T10:47:23.364Z,2625
2016-03-27T10:47:36.633Z,2690
2016-03-27T10:47:49.914Z,2755
2016-03-27T10:48:03.180Z,2890
2016-03-27T10:48:16.555Z,2975
2016-03-27T10:48:29.838Z,3120
2016-03-27T10:48:43.104Z,3430
2016-03-27T10:48:56.369Z,3460
2016-03-27T10:49:09.651Z,3345
2016-03-27T10:49:22.932Z,3180
2016-03-27T10:49:36.246Z,3170
2016-03-27T10:49:49.543Z,3215
2016-03-27T10:50:02.825Z,3190
2016-03-27T10:50:16.121Z,3110
2016-03-27T10:50:29.421Z,3115
2016-03-27T10:50:42.718Z,3180
2016-03-27T10:50:56.031Z,3195
2016-03-27T10:51:09.328Z,2995
2016-03-27T10:51:22.624Z,2825
2016-03-27T10:51:35.909Z,2790
2016-03-27T10:51:49.174Z,2840
2016-03-27T10:52:02.471Z,3060
2016-03-27T10:52:15.752Z,3170
2016-03-27T10:52:29.036Z,3215
2016-03-27T10:52:42.317Z,3280
2016-03-27T10:52:55.583Z,3410
2016-03-27T10:53:08.864Z,3560
2016-03-27T10:53:22.161Z,3540
2016-03-27T10:53:35.461Z,3475
2016-03-27T10:53:48.773Z,3530
2016-03-27T10:54:02.070Z,3515
2016-03-27T10:54:15.351Z,3595
2016-03-27T10:54:28.635Z,3645
2016-03-27T10:54:41.901Z,3550
2016-03-27T10:54:55.182Z,3450
2016-03-27T10:55:08.448Z,3425
2016-03-27T10:55:21.776Z,3445
2016-03-27T10:55:35.045Z,3460
2016-03-27T10:55:48.295Z,3275
2016-03-27T10:56:01.404Z,3445
2016-03-27T10:56:14.670Z,3480
2016-03-27T10:56:27.969Z,3675
2016-03-27T10:56:41.265Z,3735
2016-03-27T10:56:54.578Z,3670
2016-03-27T10:57:07.844Z,3730
2016-03-27T10:57:20.953Z,3740
2016-03-27T10:57:34.237Z,3650
2016-03-27T10:57:47.518Z,3500
2016-03-27T10:58:00.815Z,3645
2016-03-27T10:58:14.347Z,3660
2016-03-27T10:58:27.678Z,3565
2016-03-27T10:58:40.959Z,3455
2016-03-27T10:58:54.240Z,3285
2016-03-27T10:59:07.709Z,3330
2016-03-27T10:59:20.990Z,3375
2016-03-27T10:59:34.289Z,3375
2016-03-27T10:59:47.617Z,3490
2016-03-27T11:00:00.914Z,3500
2016-03-27T11:00:14.180Z,3520
2016-03-27T11:00:27.495Z,3420
2016-03-27T11:00:40.776Z,3485
2016-03-27T11:00:54.058Z,3455
2016-03-27T11:01:07.401Z,3515
2016-03-27T11:01:20.683Z,3600
2016-03-27T11:01:33.967Z,3520
2016-03-27T11:01:47.233Z,3575
2016-03-27T11:02:00.529Z,3520
2016-03-27T11:02:13.826Z,3380
2016-03-27T11:02:27.125Z,3270
2016-03-27T11:02:40.453Z,3400
2016-03-27T11:02:53.750Z,3390
2016-03-27T11:03:07.031Z,3455
2016-03-27T11:03:20.250Z,3355
2016-03-27T11:03:33.614Z,3270
2016-03-27T11:03:46.895Z,3125
2016-03-27T11:04:00.176Z,3100
2016-03-27T11:04:13.442Z,2840
2016-03-27T11:04:26.772Z,2740
2016-03-27T11:04:40.069Z,2800
2016-03-27T11:04:53.397Z,2700
2016-03-27T11:05:06.694Z,2730
2016-03-27T11:05:19.959Z,2810
2016-03-27T11:05:33.243Z,3055
2016-03-27T11:05:46.524Z,3190
2016-03-27T11:05:59.821Z,2990
2016-03-27T11:06:13.118Z,2840
2016-03-27T11:06:26.481Z,3070
2016-03-27T11:06:39.762Z,3070
2016-03-27T11:06:53.028Z,3045
2016-03-27T11:07:06.153Z,3030
2016-03-27T11:07:19.434Z,2925
2016-03-27T11:07:32.749Z,3055
2016-03-27T11:07:46.045Z,2980
2016-03-27T11:07:59.374Z,3100
2016-03-27T11:08:12.670Z,3220
2016-03-27T11:08:25.938Z,3470
2016-03-27T11:08:39.219Z,3670
2016-03-27T11:08:52.516Z,3810
2016-03-27T11:09:05.813Z,3450
2016-03-27T11:09:19.126Z,2950
2016-03-27T11:09:32.441Z,2770
2016-03-27T11:09:45.785Z,3800
2016-03-27T11:09:59.097Z,3870
2016-03-27T11:10:12.394Z,3950
2016-03-27T11:10:25.694Z,3975
2016-03-27T11:10:38.975Z,3985
2016-03-27T11:10:52.272Z,3990
2016-03-27T11:11:05.600Z,3980
2016-03-27T11:11:18.928Z,3970
2016-03-27T11:11:32.260Z,3940
2016-03-27T11:11:45.541Z,3910
2016-03-27T11:11:58.822Z,3890
2016-03-27T11:12:12.103Z,3865
2016-03-27T11:12:25.387Z,3880
2016-03-27T11:12:38.699Z,3885
2016-03-27T11:12:52.027Z,3850
2016-03-27T11:13:05.340Z,3295
2016-03-27T11:13:18.637Z,3120
2016-03-27T11:13:31.921Z,3125
2016-03-27T11:13:59.358Z,3385
2016-03-27T11:14:12.655Z,2770
2016-03-27T11:14:25.955Z,3030
2016-03-27T11:14:39.314Z,2790
2016-03-27T11:14:52.611Z,2970
2016-03-27T11:15:05.893Z,3155
2016-03-27T11:15:19.189Z,3540
2016-03-27T11:15:32.332Z,3445
2016-03-27T11:15:45.613Z,3340
2016-03-27T11:15:58.910Z,3415
2016-03-27T11:16:12.238Z,3510
2016-03-27T11:16:25.523Z,3620
2016-03-27T11:16:38.648Z,3300
2016-03-27T11:16:51.929Z,3220
2016-03-27T11:17:05.210Z,3480
2016-03-27T11:17:18.507Z,3860
2016-03-27T11:17:31.822Z,2610
2016-03-27T11:17:45.104Z,3330
2016-03-27T11:17:58.401Z,3565
2016-03-27T11:18:11.697Z,3910
2016-03-27T11:18:24.903Z,3875
2016-03-27T11:18:38.199Z,3875
2016-03-27T11:18:51.496Z,3895
2016-03-27T11:19:04.778Z,3890
2016-03-27T11:19:18.074Z,3890
2016-03-27T11:19:31.375Z,3820
2016-03-27T11:19:44.703Z,3705
2016-03-27T11:19:58.016Z,3515
2016-03-27T11:20:11.297Z,3450
2016-03-27T11:20:24.594Z,3450
2016-03-27T11:20:37.877Z,3325
2016-03-27T11:20:51.159Z,3170
2016-03-27T11:21:04.455Z,2805
2016-03-27T11:21:17.784Z,2885
2016-03-27T11:21:31.114Z,2905
2016-03-27T11:21:44.379Z,2990
2016-03-27T11:21:57.661Z,2780
2016-03-27T11:22:10.957Z,2795
2016-03-27T11:22:24.239Z,2820
2016-03-27T11:22:37.540Z,2760
2016-03-27T11:22:50.852Z,2930
2016-03-27T11:23:04.180Z,2565
2016-03-27T11:23:17.477Z,2720
2016-03-27T11:23:30.760Z,2820
2016-03-27T11:23:44.042Z,2555
2016-03-27T11:23:57.323Z,2715
2016-03-27T11:24:10.620Z,2950
2016-03-27T11:24:23.917Z,2875
2016-03-27T11:24:37.247Z,3095
2016-03-27T11:24:50.403Z,3225
2016-03-27T11:25:03.528Z,3085
2016-03-27T11:25:16.825Z,2905
2016-03-27T11:25:30.109Z,2925
2016-03-27T11:25:43.406Z,2940
2016-03-27T11:25:56.718Z,3225
2016-03-27T11:26:10.015Z,3205
2016-03-27T11:26:23.172Z,3115
2016-03-27T11:26:36.456Z,3415
2016-03-27T11:26:49.721Z,3520
2016-03-27T11:27:02.987Z,3480
2016-03-27T11:27:16.268Z,3220
2016-03-27T11:27:29.553Z,3135
2016-03-27T11:27:42.849Z,3025
2016-03-27T11:27:56.162Z,3040
2016-03-27T11:28:09.459Z,3015
2016-03-27T11:28:22.724Z,2930
2016-03-27T11:28:36.008Z,2955
2016-03-27T11:28:49.305Z,3020
2016-03-27T11:29:02.601Z,3065
2016-03-27T11:29:15.930Z,3100
2016-03-27T11:29:29.245Z,3140
2016-03-27T11:29:42.542Z,3090
2016-03-27T11:29:55.823Z,2960
2016-03-27T11:30:09.089Z,2955
2016-03-27T11:30:22.386Z,2910
2016-03-27T11:30:35.686Z,3155
2016-03-27T11:30:48.982Z,3215
2016-03-27T11:31:02.311Z,3125
2016-03-27T11:31:15.639Z,3230
2016-03-27T11:31:28.938Z,3285
2016-03-27T11:31:42.219Z,3270
2016-03-27T11:31:55.516Z,3175
2016-03-27T11:32:08.813Z,3250
2016-03-27T11:32:22.109Z,3195
2016-03-27T11:32:35.409Z,3155
2016-03-27T11:32:48.722Z,3100
2016-03-27T11:33:02.066Z,3055
2016-03-27T11:33:15.362Z,2920
2016-03-27T11:33:28.709Z,2830
2016-03-27T11:33:41.990Z,2795
2016-03-27T11:33:55.272Z,2755
2016-03-27T11:34:08.569Z,2670
2016-03-27T11:34:21.881Z,2665
2016-03-27T11:34:35.181Z,2560
2016-03-27T11:34:48.493Z,2500
2016-03-27T11:35:01.775Z,2635
2016-03-27T11:35:15.072Z,2715
2016-03-27T11:35:28.356Z,2790
2016-03-27T11:35:41.653Z,2595
2016-03-27T11:35:54.934Z,2740
2016-03-27T11:36:08.262Z,2620
2016-03-27T11:36:21.590Z,2645
2016-03-27T11:36:34.905Z,2655
2016-03-27T11:36:48.186Z,2830
2016-03-27T11:37:01.467Z,2695
2016-03-27T11:37:14.748Z,2580
2016-03-27T11:37:28.032Z,2540
2016-03-27T11:37:41.344Z,2445
2016-03-27T11:37:54.672Z,2465
2016-03-27T11:38:08.000Z,2485
2016-03-27T11:38:21.282Z,2495
2016-03-27T11:38:34.566Z,2365
2016-03-27T11:38:47.863Z,2255
2016-03-27T11:39:01.144Z,2325
2016-03-27T11:39:14.425Z,2200
2016-03-27T11:39:27.741Z,2185
2016-03-27T11:39:41.053Z,2245
2016-03-27T11:39:54.350Z,2255
2016-03-27T11:40:07.631Z,2195
2016-03-27T11:40:20.913Z,2120
2016-03-27T11:40:34.213Z,2220
2016-03-27T11:40:47.509Z,2195
2016-03-27T11:41:00.822Z,2345
2016-03-27T11:41:14.134Z,2425
2016-03-27T11:41:27.465Z,2580
2016-03-27T11:41:40.746Z,2585
2016-03-27T11:41:54.027Z,2725
2016-03-27T11:42:07.308Z,2700
2016-03-27T11:42:20.590Z,2620
2016-03-27T11:42:33.905Z,2730
2016-03-27T11:42:47.202Z,2655
2016-03-27T11:43:00.546Z,2565
2016-03-27T11:43:13.858Z,2335
2016-03-27T11:43:27.361Z,2485
2016-03-27T11:43:40.642Z,2735
2016-03-27T11:43:53.939Z,2760
2016-03-27T11:44:07.236Z,2635
2016-03-27T11:44:20.533Z,3005
2016-03-27T11:44:33.848Z,2820
2016-03-27T11:44:47.176Z,2630
2016-03-27T11:45:00.457Z,2795
2016-03-27T11:45:13.738Z,2840
2016-03-27T11:45:27.022Z,2855
2016-03-27T11:45:40.304Z,2925
2016-03-27T11:45:53.616Z,2955
2016-03-27T11:46:06.929Z,2975
2016-03-27T11:46:20.241Z,2935
2016-03-27T11:46:33.557Z,2880
2016-03-27T11:46:46.838Z,2850
2016-03-27T11:47:00.135Z,3020
2016-03-27T11:47:13.432Z,3150
2016-03-27T11:47:26.731Z,3180
2016-03-27T11:47:40.043Z,3180
2016-03-27T11:47:53.356Z,3215
2016-03-27T11:48:06.668Z,3240
2016-03-27T11:48:20.074Z,3190
2016-03-27T11:48:33.546Z,3185
2016-03-27T11:48:46.827Z,3210
2016-03-27T11:49:00.124Z,3320
2016-03-27T11:49:13.405Z,3300
2016-03-27T11:49:26.690Z,3285
2016-03-27T11:49:54.158Z,3120
2016-03-27T11:50:07.518Z,3015
2016-03-27T11:50:20.783Z,2915
2016-03-27T11:50:33.927Z,2870
2016-03-27T11:50:47.208Z,2845
2016-03-27T11:51:00.490Z,2825
2016-03-27T11:51:13.802Z,2945
2016-03-27T11:51:27.117Z,3100
2016-03-27T11:51:40.445Z,3130
2016-03-27T11:51:53.773Z,3165
2016-03-27T11:52:07.070Z,3215
2016-03-27T11:52:20.351Z,3285
2016-03-27T11:52:33.635Z,3220
2016-03-27T11:52:46.932Z,2835
2016-03-27T11:53:00.245Z,3360
2016-03-27T11:53:13.573Z,3425
2016-03-27T11:53:26.888Z,3555
2016-03-27T11:53:40.169Z,3580
2016-03-27T11:53:53.451Z,3520
2016-03-27T11:54:06.748Z,3580
2016-03-27T11:54:20.044Z,3745
2016-03-27T11:54:33.328Z,3125
2016-03-27T11:54:46.656Z,3605
2016-03-27T11:54:59.984Z,3725
2016-03-27T11:55:13.281Z,3665
2016-03-27T11:55:26.549Z,3595
2016-03-27T11:55:39.831Z,3560
2016-03-27T11:55:53.112Z,3485
2016-03-27T11:56:06.409Z,3280
2016-03-27T11:56:19.706Z,3210
2016-03-27T11:56:33.006Z,3435
2016-03-27T11:56:46.271Z,3545
2016-03-27T11:56:59.552Z,3665
2016-03-27T11:57:12.849Z,3510
2016-03-27T11:57:26.149Z,3685
2016-03-27T11:57:39.446Z,3630
2016-03-27T11:57:52.759Z,3635
2016-03-27T11:58:06.087Z,3635
2016-03-27T11:58:19.352Z,3565
2016-03-27T11:58:32.651Z,3675
2016-03-27T11:58:45.932Z,2745
2016-03-27T11:58:59.214Z,3355
2016-03-27T11:59:12.511Z,3695
2016-03-27T11:59:25.857Z,3655
2016-03-27T11:59:39.170Z,3635
2016-03-27T11:59:52.467Z,3630
2016-03-27T12:00:05.592Z,3595
2016-03-27T12:00:18.873Z,3630
2016-03-27T12:00:32.157Z,3635
2016-03-27T12:00:45.470Z,3640
2016-03-27T12:00:58.782Z,3610
2016-03-27T12:01:12.095Z,3510
2016-03-27T12:01:25.376Z,3410
2016-03-27T12:01:38.972Z,3240
2016-03-27T12:01:52.144Z,3210
2016-03-27T12:02:05.440Z,3195
2016-03-27T12:02:18.722Z,3235
2016-03-27T12:02:32.021Z,3310
2016-03-27T12:02:45.302Z,3295
2016-03-27T12:02:58.614Z,3320
2016-03-27T12:03:11.927Z,3300
2016-03-27T12:03:25.239Z,3440
2016-03-27T12:03:38.540Z,3465
2016-03-27T12:03:51.868Z,3305
2016-03-27T12:04:05.165Z,3235
2016-03-27T12:04:18.478Z,3345
2016-03-27T12:04:31.792Z,3310
2016-03-27T12:04:45.073Z,3280
2016-03-27T12:04:58.355Z,3155
2016-03-27T12:05:11.652Z,3230
2016-03-27T12:05:24.980Z,3220
2016-03-27T12:05:38.280Z,3255
2016-03-27T12:05:51.623Z,3325
2016-03-27T12:06:04.936Z,3410
2016-03-27T12:06:18.264Z,3610
2016-03-27T12:06:31.548Z,3525
2016-03-27T12:06:44.814Z,3370
2016-03-27T12:06:58.111Z,3525
2016-03-27T12:07:11.408Z,3575
2016-03-27T12:07:24.704Z,3565
2016-03-27T12:07:38.019Z,3355
2016-03-27T12:07:51.175Z,3310
2016-03-27T12:08:04.331Z,3280
2016-03-27T12:08:17.628Z,3270
2016-03-27T12:08:30.913Z,3125
2016-03-27T12:08:44.194Z,3055
2016-03-27T12:08:57.475Z,3115
2016-03-27T12:09:10.772Z,2975
2016-03-27T12:09:24.100Z,2915
2016-03-27T12:09:37.416Z,2660
2016-03-27T12:09:50.712Z,2495
2016-03-27T12:10:03.994Z,2570
2016-03-27T12:10:17.275Z,2485
2016-03-27T12:10:30.559Z,2475
2016-03-27T12:10:43.840Z,2560
2016-03-27T12:10:57.137Z,2455
2016-03-27T12:11:10.450Z,2360
2016-03-27T12:11:23.731Z,2310
2016-03-27T12:11:36.858Z,2250
2016-03-27T12:11:50.139Z,2315
2016-03-27T12:12:03.421Z,2305
2016-03-27T12:12:16.717Z,2400
2016-03-27T12:12:30.017Z,2430
2016-03-27T12:12:43.345Z,2495
2016-03-27T12:12:56.533Z,2565
2016-03-27T12:13:09.814Z,2525
2016-03-27T12:13:23.095Z,2460
2016-03-27T12:13:36.379Z,2505
2016-03-27T12:13:49.676Z,2350
2016-03-27T12:14:02.972Z,2225
2016-03-27T12:14:16.301Z,2315
2016-03-27T12:14:29.585Z,2320
2016-03-27T12:14:42.866Z,2360
2016-03-27T12:14:56.147Z,2585
2016-03-27T12:15:09.444Z,2550
2016-03-27T12:15:22.741Z,2565
2016-03-27T12:15:36.071Z,2225
2016-03-27T12:15:49.384Z,2290
2016-03-27T12:16:02.665Z,2425
2016-03-27T12:16:15.946Z,2300
2016-03-27T12:16:29.231Z,2345
2016-03-27T12:16:42.528Z,2255
2016-03-27T12:16:55.685Z,2380
2016-03-27T12:17:09.013Z,2245
2016-03-27T12:17:22.325Z,2315
2016-03-27T12:17:35.640Z,2110
2016-03-27T12:17:48.905Z,2010
2016-03-27T12:18:02.187Z,2180
2016-03-27T12:18:15.483Z,2170
2016-03-27T12:18:28.783Z,2070
2016-03-27T12:18:41.971Z,2060
2016-03-27T12:18:55.674Z,2065
2016-03-27T12:19:08.940Z,2020
2016-03-27T12:19:22.221Z,2020
2016-03-27T12:19:35.535Z,2250
2016-03-27T12:19:48.817Z,2165
2016-03-27T12:20:02.317Z,2100
2016-03-27T12:20:15.629Z,2095
2016-03-27T12:20:28.946Z,2015
2016-03-27T12:20:42.211Z,1940
2016-03-27T12:20:55.508Z,1795
2016-03-27T12:21:08.789Z,1700
2016-03-27T12:21:22.086Z,1675
2016-03-27T12:21:35.385Z,1710
2016-03-27T12:21:48.651Z,1735
2016-03-27T12:22:01.948Z,1745
2016-03-27T12:22:15.244Z,1710
2016-03-27T12:22:28.528Z,1670
2016-03-27T12:22:41.809Z,1615
2016-03-27T12:22:55.106Z,1635
2016-03-27T12:23:08.403Z,1705
2016-03-27T12:23:21.684Z,1800
2016-03-27T12:23:35.000Z,1870
2016-03-27T12:23:48.282Z,1930
2016-03-27T12:24:01.563Z,1965
2016-03-27T12:24:14.875Z,1995
2016-03-27T12:24:28.143Z,2045
2016-03-27T12:24:41.440Z,2040
2016-03-27T12:24:54.752Z,1995
2016-03-27T12:25:08.018Z,1900
2016-03-27T12:25:21.299Z,1865
2016-03-27T12:25:34.583Z,1915
2016-03-27T12:25:47.833Z,2060
2016-03-27T12:26:01.098Z,2130
2016-03-27T12:26:14.379Z,2095
2016-03-27T12:26:27.679Z,2080
2016-03-27T12:26:40.961Z,2035
2016-03-27T12:26:54.257Z,2025
2016-03-27T12:27:07.539Z,2075
2016-03-27T12:27:20.836Z,2140
2016-03-27T12:27:34.135Z,2235
2016-03-27T12:27:47.432Z,2320
2016-03-27T12:28:00.729Z,2385
2016-03-27T12:28:14.010Z,2550
2016-03-27T12:28:27.310Z,2825
2016-03-27T12:28:40.592Z,3000
2016-03-27T12:28:53.888Z,3125
2016-03-27T12:29:07.185Z,2750
2016-03-27T12:29:20.482Z,2620
2016-03-27T12:29:33.765Z,2385
2016-03-27T12:29:47.062Z,2490
2016-03-27T12:30:00.359Z,2335
2016-03-27T12:30:13.640Z,2115
2016-03-27T12:30:26.940Z,1980
2016-03-27T12:30:40.206Z,1985
2016-03-27T12:30:53.487Z,1955
2016-03-27T12:31:06.831Z,1880
2016-03-27T12:31:20.112Z,1780
2016-03-27T12:31:33.396Z,1690
2016-03-27T12:31:46.693Z,1630
2016-03-27T12:31:59.990Z,1605
2016-03-27T12:32:13.287Z,1585
2016-03-27T12:32:26.586Z,1585
2016-03-27T12:32:39.883Z,1575
2016-03-27T12:32:53.164Z,1565
2016-03-27T12:33:06.461Z,1550
2016-03-27T12:33:19.742Z,1535
2016-03-27T12:33:33.026Z,1525